Time;durP1;ratioP1;P1;durP2;ratioP2;P2;SDS_P1;SDS_P2;PMS_P1;PMS_P2;Temp;Humidity;BMP_temperature;BMP_pressure;BME280_temperature;BME280_humidity;BME280_pressure;Samples;Min_cycle;Max_cycle;Signal;HPM_P1;HPM_P2
2021/06/15 00:00:22;;;;;;;2.92;1.60;;;;;;;;;;4379942;32;20788;-56
2021/06/15 00:02:48;;;;;;;3.28;1.30;;;;;;;;;;4390854;32;20218;-56
2021/06/15 00:05:15;;;;;;;2.63;1.87;;;;;;;;;;4378338;32;20229;-56
2021/06/15 00:07:41;;;;;;;7.90;1.30;;;;;;;;;;4390833;32;21586;-56
2021/06/15 00:10:12;;;;;;;4.97;2.05;;;;;;;;;;4381449;32;20271;-55
2021/06/15 00:12:38;;;;;;;5.32;1.58;;;;;;;;;;4361127;32;20240;-56
2021/06/15 00:15:06;;;;;;;2.75;1.60;;;;;;;;;;4377365;32;20222;-56
2021/06/15 00:17:31;;;;;;;6.82;6.12;;;;;;;;;;4390558;32;20249;-56
2021/06/15 00:19:57;;;;;;;13.98;8.07;;;;;;;;;;4381886;32;20467;-57
2021/06/15 00:22:22;;;;;;;4.25;3.85;;;;;;;;;;4383046;32;20370;-56
2021/06/15 00:24:48;;;;;;;4.95;3.37;;;;;;;;;;4379381;32;20239;-57
2021/06/15 00:27:14;;;;;;;5.40;3.50;;;;;;;;;;4388770;32;20230;-56
2021/06/15 00:29:39;;;;;;;5.57;1.73;;;;;;;;;;4383886;32;20277;-56
2021/06/15 00:32:05;;;;;;;2.62;1.83;;;;;;;;;;4376814;32;20535;-57
2021/06/15 00:34:31;;;;;;;4.18;1.80;;;;;;;;;;4378982;32;20623;-57
2021/06/15 00:36:56;;;;;;;2.75;1.73;;;;;;;;;;4386632;32;20316;-56
2021/06/15 00:39:21;;;;;;;2.55;1.60;;;;;;;;;;4385458;32;20281;-57
2021/06/15 00:41:47;;;;;;;3.72;1.55;;;;;;;;;;4385624;32;20612;-56
2021/06/15 00:44:12;;;;;;;5.40;1.75;;;;;;;;;;4386464;32;20400;-57
2021/06/15 00:46:39;;;;;;;6.72;1.92;;;;;;;;;;4384695;32;20516;-57
2021/06/15 00:49:05;;;;;;;3.80;1.75;;;;;;;;;;4387118;32;20250;-57
2021/06/15 00:51:31;;;;;;;1.65;1.45;;;;;;;;;;4383732;32;20302;-56
2021/06/15 00:53:56;;;;;;;1.98;1.45;;;;;;;;;;4381070;32;20198;-56
2021/06/15 00:56:21;;;;;;;6.22;1.70;;;;;;;;;;4377981;32;20325;-56
2021/06/15 00:58:47;;;;;;;4.75;1.45;;;;;;;;;;4367127;32;20609;-56
2021/06/15 01:01:13;;;;;;;3.40;1.65;;;;;;;;;;4383340;32;20253;-56
2021/06/15 01:03:39;;;;;;;3.15;1.40;;;;;;;;;;4387122;32;20292;-59
2021/06/15 01:06:16;;;;;;;4.95;1.33;;;;;;;;;;4383247;32;20298;-57
2021/06/15 01:08:41;;;;;;;2.33;1.33;;;;;;;;;;4386456;32;20477;-57
2021/06/15 01:11:07;;;;;;;3.67;1.70;;;;;;;;;;4383064;32;20299;-56
2021/06/15 01:13:50;;;;;;;10.87;3.07;;;;;;;;;;4387170;32;20641;-55
2021/06/15 01:16:26;;;;;;;8.68;7.37;;;;;;;;;;4383339;32;20210;-56
2021/06/15 01:18:58;;;;;;;10.82;6.82;;;;;;;;;;4387076;32;20289;-57
2021/06/15 01:21:24;;;;;;;4.00;2.78;;;;;;;;;;4383184;32;20324;-57
2021/06/15 01:24:02;;;;;;;2.37;1.77;;;;;;;;;;4377462;32;20213;-57
2021/06/15 01:26:45;;;;;;;3.08;1.48;;;;;;;;;;4383167;32;20258;-57
2021/06/15 01:29:34;;;;;;;5.80;1.50;;;;;;;;;;4384544;32;20598;-57
2021/06/15 01:32:07;;;;;;;2.33;1.55;;;;;;;;;;4376563;32;20206;-56
2021/06/15 01:34:37;;;;;;;2.58;1.95;;;;;;;;;;4378025;32;20273;-56
2021/06/15 01:37:08;;;;;;;3.13;1.53;;;;;;;;;;4383193;32;20626;-56
2021/06/15 01:39:39;;;;;;;3.97;2.22;;;;;;;;;;4378512;32;20285;-56
2021/06/15 01:42:12;;;;;;;6.50;1.60;;;;;;;;;;4386622;32;20209;-56
2021/06/15 01:44:38;;;;;;;2.57;1.63;;;;;;;;;;4383541;32;20226;-56
2021/06/15 01:47:14;;;;;;;2.00;1.50;;;;;;;;;;4386787;32;20543;-57
2021/06/15 01:49:43;;;;;;;6.07;1.60;;;;;;;;;;4382940;32;20545;-57
2021/06/15 01:52:10;;;;;;;3.00;1.62;;;;;;;;;;4387474;32;20249;-56
2021/06/15 01:54:38;;;;;;;4.70;1.70;;;;;;;;;;4380957;32;20303;-56
2021/06/15 01:57:06;;;;;;;3.40;1.70;;;;;;;;;;4386902;32;20396;-57
2021/06/15 01:59:33;;;;;;;2.85;1.73;;;;;;;;;;4383665;32;20206;-55
2021/06/15 02:01:59;;;;;;;3.55;1.52;;;;;;;;;;4386222;32;20225;-56
2021/06/15 02:04:32;;;;;;;6.37;1.43;;;;;;;;;;4384345;32;20218;-57
2021/06/15 02:07:00;;;;;;;2.85;1.52;;;;;;;;;;4386068;32;20291;-56
2021/06/15 02:09:28;;;;;;;5.80;1.70;;;;;;;;;;4383964;32;20222;-56
2021/06/15 02:11:54;;;;;;;2.27;1.20;;;;;;;;;;4385364;32;20315;-55
2021/06/15 02:14:25;;;;;;;3.47;1.40;;;;;;;;;;4384632;32;20679;-57
2021/06/15 02:16:53;;;;;;;6.83;1.87;;;;;;;;;;4384980;32;20314;-56
2021/06/15 02:19:21;;;;;;;2.80;1.90;;;;;;;;;;4382994;32;20587;-58
2021/06/15 02:21:52;;;;;;;5.25;1.70;;;;;;;;;;4379022;32;20269;-56
2021/06/15 02:24:21;;;;;;;3.57;1.47;;;;;;;;;;4378086;32;20575;-56
2021/06/15 02:26:49;;;;;;;2.17;1.50;;;;;;;;;;4384420;32;20222;-55
2021/06/15 02:29:14;;;;;;;3.23;1.80;;;;;;;;;;4385215;32;20244;-56
2021/06/15 02:31:56;;;;;;;8.57;2.03;;;;;;;;;;4375790;32;20226;-56
2021/06/15 02:34:24;;;;;;;10.43;2.60;;;;;;;;;;4377861;32;20310;-56
2021/06/15 02:36:51;;;;;;;6.13;2.10;;;;;;;;;;4384805;32;20217;-56
2021/06/15 02:39:21;;;;;;;3.47;1.90;;;;;;;;;;4385028;32;20209;-56
2021/06/15 02:41:47;;;;;;;5.50;2.57;;;;;;;;;;4384253;32;20283;-56
2021/06/15 02:44:18;;;;;;;4.43;2.40;;;;;;;;;;4385257;32;20303;-56
2021/06/15 02:46:46;;;;;;;8.70;2.00;;;;;;;;;;4383856;32;20238;-56
2021/06/15 02:49:18;;;;;;;4.70;1.77;;;;;;;;;;4383790;32;20283;-56
2021/06/15 02:52:12;;;;;;;2.63;1.80;;;;;;;;;;4383902;32;20232;-57
2021/06/15 02:54:46;;;;;;;4.80;1.90;;;;;;;;;;4384356;32;20251;-56
2021/06/15 02:57:13;;;;;;;5.93;2.00;;;;;;;;;;4376392;32;20284;-56
2021/06/15 02:59:39;;;;;;;3.37;2.00;;;;;;;;;;4376170;32;20268;-56
2021/06/15 03:02:04;;;;;;;4.95;2.33;;;;;;;;;;4397411;32;20258;-56
2021/06/15 03:04:29;;;;;;;2.05;1.60;;;;;;;;;;4383281;32;20202;-56
2021/06/15 03:06:55;;;;;;;2.57;1.83;;;;;;;;;;4385066;32;20340;-56
2021/06/15 03:09:23;;;;;;;10.32;2.15;;;;;;;;;;4380349;32;20238;-57
2021/06/15 03:11:55;;;;;;;5.63;2.10;;;;;;;;;;4378554;32;20313;-57
2021/06/15 03:14:28;;;;;;;5.47;1.77;;;;;;;;;;4377708;32;20213;-57
2021/06/15 03:16:57;;;;;;;9.57;2.23;;;;;;;;;;4384823;32;20214;-55
2021/06/15 03:19:39;;;;;;;4.40;2.20;;;;;;;;;;4383581;32;20281;-56
2021/06/15 03:22:09;;;;;;;11.27;2.43;;;;;;;;;;4381278;32;20237;-57
2021/06/15 03:24:40;;;;;;;4.33;2.50;;;;;;;;;;4377669;32;20221;-57
2021/06/15 03:27:12;;;;;;;4.70;2.10;;;;;;;;;;4385880;32;21093;-56
2021/06/15 03:29:40;;;;;;;5.00;2.60;;;;;;;;;;4382175;32;20234;-57
2021/06/15 03:32:09;;;;;;;6.87;2.30;;;;;;;;;;4375591;32;20226;-56
2021/06/15 03:34:41;;;;;;;4.20;2.27;;;;;;;;;;4383498;32;20279;-56
2021/06/15 03:37:10;;;;;;;7.40;2.40;;;;;;;;;;4375030;32;20259;-56
2021/06/15 03:39:36;;;;;;;5.47;2.37;;;;;;;;;;4375127;32;20251;-57
2021/06/15 03:42:02;;;;;;;3.90;2.07;;;;;;;;;;4388312;32;20308;-57
2021/06/15 03:44:28;;;;;;;3.10;2.17;;;;;;;;;;4385371;32;20201;-58
2021/06/15 03:46:56;;;;;;;5.50;2.00;;;;;;;;;;4387396;32;20279;-56
2021/06/15 03:49:22;;;;;;;8.17;1.80;;;;;;;;;;4386315;32;20650;-56
2021/06/15 03:51:54;;;;;;;3.37;2.50;;;;;;;;;;4386537;32;20222;-56
2021/06/15 03:54:21;;;;;;;5.90;2.00;;;;;;;;;;4386152;32;20281;-58
2021/06/15 03:56:48;;;;;;;2.27;1.70;;;;;;;;;;4380453;32;20252;-56
2021/06/15 03:59:24;;;;;;;5.20;2.10;;;;;;;;;;4379775;32;20236;-56
2021/06/15 04:01:52;;;;;;;6.43;2.60;;;;;;;;;;4382155;32;20217;-57
2021/06/15 04:04:18;;;;;;;3.07;1.83;;;;;;;;;;4386496;32;20233;-57
2021/06/15 04:06:49;;;;;;;3.37;2.00;;;;;;;;;;4386105;32;20225;-57
2021/06/15 04:09:16;;;;;;;4.63;2.20;;;;;;;;;;4387072;32;20218;-56
2021/06/15 04:11:42;;;;;;;4.37;2.13;;;;;;;;;;4386140;32;20307;-56
2021/06/15 04:14:11;;;;;;;10.33;2.07;;;;;;;;;;4385698;32;20246;-55
2021/06/15 04:16:38;;;;;;;3.57;1.93;;;;;;;;;;4381375;32;20237;-56
2021/06/15 04:19:08;;;;;;;2.77;1.97;;;;;;;;;;4379349;32;20244;-57
2021/06/15 04:21:38;;;;;;;3.37;2.00;;;;;;;;;;4383540;32;20213;-57
2021/06/15 04:24:06;;;;;;;3.03;1.73;;;;;;;;;;4379750;32;20209;-55
2021/06/15 04:26:34;;;;;;;10.07;2.20;;;;;;;;;;4384507;32;20740;-55
2021/06/15 04:29:02;;;;;;;4.33;2.07;;;;;;;;;;4387873;32;20639;-56
2021/06/15 04:31:30;;;;;;;2.47;1.73;;;;;;;;;;4377057;32;20353;-56
2021/06/15 04:33:58;;;;;;;6.60;2.60;;;;;;;;;;4377128;32;20236;-56
2021/06/15 04:36:23;;;;;;;6.47;2.10;;;;;;;;;;4381466;32;20244;-56
2021/06/15 04:38:59;;;;;;;11.93;2.20;;;;;;;;;;4377448;32;20342;-56
2021/06/15 04:41:34;;;;;;;3.53;2.00;;;;;;;;;;4383441;32;20518;-56
2021/06/15 04:44:16;;;;;;;3.87;1.80;;;;;;;;;;4386174;32;20333;-57
2021/06/15 04:47:29;;;;;;;6.67;2.50;;;;;;;;;;4372287;32;20302;-57
2021/06/15 04:50:03;;;;;;;2.60;1.60;;;;;;;;;;4304032;33;20360;-57
2021/06/15 04:52:30;;;;;;;3.67;2.23;;;;;;;;;;4375820;32;20272;-57
2021/06/15 04:54:56;;;;;;;8.00;2.10;;;;;;;;;;4380414;32;20206;-57
2021/06/15 04:57:26;;;;;;;4.53;2.17;;;;;;;;;;4388786;32;20217;-57
2021/06/15 04:59:55;;;;;;;7.32;1.67;;;;;;;;;;4380284;32;20276;-57
2021/06/15 05:02:23;;;;;;;11.63;2.65;;;;;;;;;;4378764;32;20226;-57
2021/06/15 05:04:52;;;;;;;2.87;2.13;;;;;;;;;;4383210;32;20719;-56
2021/06/15 05:07:22;;;;;;;3.93;2.23;;;;;;;;;;4378274;32;20677;-56
2021/06/15 05:09:54;;;;;;;7.12;2.10;;;;;;;;;;4379295;32;20272;-56
2021/06/15 05:12:21;;;;;;;5.57;1.98;;;;;;;;;;4381154;32;20602;-55
2021/06/15 05:14:47;;;;;;;4.18;2.00;;;;;;;;;;4378830;32;20198;-57
2021/06/15 05:17:20;;;;;;;7.05;1.98;;;;;;;;;;4383491;32;20625;-57
2021/06/15 05:19:45;;;;;;;4.07;2.08;;;;;;;;;;4383044;32;20242;-56
2021/06/15 05:22:27;;;;;;;62.70;8.53;;;;;;;;;;4381913;32;20240;-57
2021/06/15 05:24:58;;;;;;;3.77;2.20;;;;;;;;;;4381110;32;20344;-55
2021/06/15 05:27:32;;;;;;;10.23;2.10;;;;;;;;;;4387378;32;20273;-58
2021/06/15 05:29:59;;;;;;;5.70;2.20;;;;;;;;;;4382967;32;20565;-58
2021/06/15 05:32:25;;;;;;;13.07;3.80;;;;;;;;;;4376263;32;20225;-58
2021/06/15 05:34:51;;;;;;;28.23;5.93;;;;;;;;;;4381426;32;20248;-57
2021/06/15 05:37:18;;;;;;;14.47;4.13;;;;;;;;;;4381414;32;20226;-56
2021/06/15 05:39:43;;;;;;;6.10;2.70;;;;;;;;;;4380409;32;20214;-56
2021/06/15 05:42:09;;;;;;;8.77;3.47;;;;;;;;;;4377530;32;20276;-56
2021/06/15 05:44:35;;;;;;;6.93;1.83;;;;;;;;;;4373755;32;20249;-57
2021/06/15 05:47:01;;;;;;;8.07;2.10;;;;;;;;;;4383830;32;20252;-57
2021/06/15 05:49:27;;;;;;;3.57;1.77;;;;;;;;;;4381550;32;20239;-56
2021/06/15 05:52:07;;;;;;;7.30;1.95;;;;;;;;;;4378817;32;20343;-56
2021/06/15 05:54:32;;;;;;;6.00;2.50;;;;;;;;;;4383877;32;20306;-57
2021/06/15 05:56:58;;;;;;;7.15;3.70;;;;;;;;;;4368090;32;20686;-57
2021/06/15 05:59:24;;;;;;;9.03;2.87;;;;;;;;;;4369926;32;20214;-56
2021/06/15 06:01:50;;;;;;;5.57;2.67;;;;;;;;;;4371849;32;20238;-57
2021/06/15 06:04:18;;;;;;;5.30;2.65;;;;;;;;;;4381324;32;20229;-57
2021/06/15 06:09:28;;;;;;;8.10;2.90;;;;;;;;;;4384335;32;20276;-58
2021/06/15 06:11:53;;;;;;;4.20;2.55;;;;;;;;;;4374113;32;20230;-57
2021/06/15 06:14:19;;;;;;;17.95;3.37;;;;;;;;;;4376018;32;20288;-57
2021/06/15 06:16:44;;;;;;;12.10;3.83;;;;;;;;;;4377707;32;20283;-57
2021/06/15 06:19:12;;;;;;;8.95;3.08;;;;;;;;;;4375917;32;20242;-56
2021/06/15 06:21:38;;;;;;;8.52;3.30;;;;;;;;;;4378677;32;20303;-57
2021/06/15 06:24:06;;;;;;;14.00;3.30;;;;;;;;;;4372322;32;20286;-56
2021/06/15 06:26:32;;;;;;;11.00;3.53;;;;;;;;;;4373224;32;20245;-56
2021/06/15 06:28:58;;;;;;;8.82;2.72;;;;;;;;;;4373542;32;20218;-57
2021/06/15 06:31:23;;;;;;;5.20;2.50;;;;;;;;;;4366985;32;20590;-58
2021/06/15 06:33:49;;;;;;;8.30;2.67;;;;;;;;;;4358197;32;20738;-57
2021/06/15 06:36:15;;;;;;;10.85;2.87;;;;;;;;;;4358702;32;20310;-57
2021/06/15 06:38:41;;;;;;;5.43;2.40;;;;;;;;;;4358755;32;20548;-58
2021/06/15 06:41:07;;;;;;;12.52;2.70;;;;;;;;;;4359078;32;20237;-57
2021/06/15 06:43:33;;;;;;;3.03;2.40;;;;;;;;;;4358995;32;20277;-57
2021/06/15 06:45:58;;;;;;;2.72;1.98;;;;;;;;;;4358147;32;20775;-57
2021/06/15 06:48:24;;;;;;;6.73;2.40;;;;;;;;;;4358338;33;20211;-57
2021/06/15 06:50:50;;;;;;;4.35;2.37;;;;;;;;;;4358271;33;20285;-56
2021/06/15 06:53:16;;;;;;;12.65;3.10;;;;;;;;;;4358056;33;20269;-56
2021/06/15 06:55:41;;;;;;;11.25;2.85;;;;;;;;;;4358409;33;20618;-57
2021/06/15 06:58:07;;;;;;;11.23;2.95;;;;;;;;;;4358368;33;20321;-56
2021/06/15 07:00:33;;;;;;;6.80;2.53;;;;;;;;;;4357804;33;20312;-57
2021/06/15 07:02:59;;;;;;;5.78;2.83;;;;;;;;;;4358117;33;20230;-57
2021/06/15 07:05:25;;;;;;;13.60;2.58;;;;;;;;;;4356838;33;20596;-58
2021/06/15 07:07:52;;;;;;;5.00;2.53;;;;;;;;;;4359105;32;20745;-56
2021/06/15 07:10:19;;;;;;;4.15;2.40;;;;;;;;;;4360803;32;20642;-57
2021/06/15 07:12:44;;;;;;;3.03;2.40;;;;;;;;;;4359104;32;20317;-57
2021/06/15 07:15:10;;;;;;;5.10;2.40;;;;;;;;;;4360696;32;20306;-56
2021/06/15 07:17:36;;;;;;;4.95;2.53;;;;;;;;;;4359458;32;20333;-57
2021/06/15 07:20:03;;;;;;;9.25;2.22;;;;;;;;;;4360870;32;20207;-56
2021/06/15 07:22:28;;;;;;;4.75;2.65;;;;;;;;;;4360781;32;20364;-58
2021/06/15 07:24:53;;;;;;;3.50;1.77;;;;;;;;;;4360935;32;20599;-57
2021/06/15 07:27:19;;;;;;;4.22;2.45;;;;;;;;;;4361091;32;20631;-57
2021/06/15 07:29:44;;;;;;;4.25;1.90;;;;;;;;;;4361073;32;20211;-58
2021/06/15 07:32:10;;;;;;;3.30;1.87;;;;;;;;;;4365126;32;20233;-57
2021/06/15 07:34:35;;;;;;;9.30;1.90;;;;;;;;;;4361029;32;20528;-57
2021/06/15 07:37:01;;;;;;;4.47;2.10;;;;;;;;;;4361260;32;20223;-57
2021/06/15 07:39:26;;;;;;;4.60;2.95;;;;;;;;;;4361051;32;20237;-57
2021/06/15 07:41:52;;;;;;;6.90;2.75;;;;;;;;;;4360029;32;20459;-57
2021/06/15 07:44:17;;;;;;;2.97;1.80;;;;;;;;;;4360878;32;20215;-57
2021/06/15 07:46:43;;;;;;;4.97;1.90;;;;;;;;;;4359380;32;20602;-57
2021/06/15 07:49:08;;;;;;;7.37;1.45;;;;;;;;;;4360748;32;20635;-56
2021/06/15 07:51:35;;;;;;;2.90;1.35;;;;;;;;;;4360710;32;20226;-56
2021/06/15 07:54:01;;;;;;;4.85;1.52;;;;;;;;;;4361450;32;20240;-57
2021/06/15 07:56:26;;;;;;;4.75;1.62;;;;;;;;;;4360980;32;20210;-57
2021/06/15 07:58:52;;;;;;;7.22;1.83;;;;;;;;;;4360508;32;20270;-57
2021/06/15 08:01:18;;;;;;;4.55;1.70;;;;;;;;;;4360283;32;20214;-58
2021/06/15 08:03:43;;;;;;;3.62;1.60;;;;;;;;;;4360107;32;20202;-58
2021/06/15 08:06:09;;;;;;;1.45;1.10;;;;;;;;;;4359010;32;20239;-57
2021/06/15 08:08:35;;;;;;;1.02;0.93;;;;;;;;;;4359680;32;20309;-57
2021/06/15 08:11:02;;;;;;;3.75;1.58;;;;;;;;;;4359707;32;20303;-57
2021/06/15 08:13:28;;;;;;;5.82;1.62;;;;;;;;;;4360584;32;20276;-57
2021/06/15 08:15:53;;;;;;;2.40;1.20;;;;;;;;;;4371696;32;20305;-57
2021/06/15 08:18:19;;;;;;;3.15;1.30;;;;;;;;;;4360411;32;20439;-57
2021/06/15 08:20:48;;;;;;;2.50;1.30;;;;;;;;;;4360274;32;20269;-57
2021/06/15 08:23:14;;;;;;;1.60;1.27;;;;;;;;;;4360322;32;20596;-57
2021/06/15 08:25:40;;;;;;;2.35;1.33;;;;;;;;;;4360249;32;20297;-58
2021/06/15 08:28:06;;;;;;;4.18;1.65;;;;;;;;;;4359068;32;20390;-58
2021/06/15 08:30:33;;;;;;;2.53;1.30;;;;;;;;;;4364409;32;20202;-57
2021/06/15 08:32:59;;;;;;;2.22;1.00;;;;;;;;;;4358543;32;20715;-56
2021/06/15 08:35:25;;;;;;;1.87;1.27;;;;;;;;;;4359876;32;20329;-59
2021/06/15 08:37:51;;;;;;;3.75;1.05;;;;;;;;;;4360893;32;20244;-57
2021/06/15 08:40:16;;;;;;;6.10;1.10;;;;;;;;;;4360133;32;20270;-57
2021/06/15 08:42:42;;;;;;;2.55;0.88;;;;;;;;;;4359900;32;20305;-56
2021/06/15 08:45:10;;;;;;;1.65;1.20;;;;;;;;;;4360345;32;20211;-56
2021/06/15 08:47:37;;;;;;;8.15;1.20;;;;;;;;;;4360526;32;20262;-56
2021/06/15 08:50:03;;;;;;;1.83;1.40;;;;;;;;;;4360011;32;20265;-57
2021/06/15 08:52:29;;;;;;;1.20;1.10;;;;;;;;;;4359183;32;20521;-58
2021/06/15 08:54:55;;;;;;;2.25;0.90;;;;;;;;;;4360506;32;20253;-57
2021/06/15 08:57:22;;;;;;;8.25;1.20;;;;;;;;;;4360505;32;20256;-57
2021/06/15 08:59:49;;;;;;;1.75;1.20;;;;;;;;;;4359735;32;20202;-57
2021/06/15 09:02:14;;;;;;;1.65;1.20;;;;;;;;;;4359891;32;20223;-56
2021/06/15 09:04:40;;;;;;;3.22;1.23;;;;;;;;;;4359464;32;20202;-58
2021/06/15 09:07:06;;;;;;;1.85;1.10;;;;;;;;;;4359956;32;20523;-57
2021/06/15 09:09:45;;;;;;;4.03;1.45;;;;;;;;;;4344997;33;20200;-57
2021/06/15 09:12:12;;;;;;;3.95;1.83;;;;;;;;;;4345366;33;20210;-56
2021/06/15 09:14:53;;;;;;;4.30;1.40;;;;;;;;;;4344546;32;20548;-57
2021/06/15 09:17:24;;;;;;;2.15;1.30;;;;;;;;;;4345147;32;20222;-58
2021/06/15 09:19:49;;;;;;;4.95;1.83;;;;;;;;;;4344646;32;20619;-56
2021/06/15 09:22:22;;;;;;;5.78;1.50;;;;;;;;;;4344987;32;20215;-57
2021/06/15 09:24:48;;;;;;;3.58;1.67;;;;;;;;;;4344061;32;20203;-57
2021/06/15 09:27:13;;;;;;;5.07;1.33;;;;;;;;;;4343883;32;20218;-58
2021/06/15 09:29:59;;;;;;;3.22;1.58;;;;;;;;;;4342997;33;20269;-56
2021/06/15 09:32:28;;;;;;;2.12;1.40;;;;;;;;;;4356723;32;20279;-57
2021/06/15 09:34:57;;;;;;;2.08;1.50;;;;;;;;;;4358342;32;20252;-57
2021/06/15 09:37:30;;;;;;;1.98;1.25;;;;;;;;;;4359442;32;20342;-58
2021/06/15 09:39:57;;;;;;;3.72;1.10;;;;;;;;;;4358718;32;20256;-56
2021/06/15 09:42:22;;;;;;;7.50;1.40;;;;;;;;;;4359556;32;20326;-58
2021/06/15 09:44:48;;;;;;;4.22;1.40;;;;;;;;;;4359358;32;20612;-57
2021/06/15 09:47:13;;;;;;;3.55;1.33;;;;;;;;;;4359390;32;20309;-57
2021/06/15 09:49:44;;;;;;;2.00;1.42;;;;;;;;;;4359650;32;20361;-57
2021/06/15 09:52:12;;;;;;;10.68;1.92;;;;;;;;;;4360101;32;20211;-57
2021/06/15 09:54:39;;;;;;;5.75;1.23;;;;;;;;;;4359439;32;20198;-56
2021/06/15 09:57:05;;;;;;;4.72;1.95;;;;;;;;;;4359022;32;20296;-57
2021/06/15 09:59:31;;;;;;;2.58;1.42;;;;;;;;;;4359006;32;20214;-57
2021/06/15 10:01:56;;;;;;;2.28;1.40;;;;;;;;;;4359278;32;20301;-56
2021/06/15 10:04:23;;;;;;;3.42;1.37;;;;;;;;;;4358844;32;20335;-57
2021/06/15 10:06:49;;;;;;;1.87;0.85;;;;;;;;;;4358818;32;20257;-57
2021/06/15 10:09:32;;;;;;;5.62;1.37;;;;;;;;;;4371580;32;20226;-57
2021/06/15 10:12:03;;;;;;;1.62;1.30;;;;;;;;;;4373475;32;20301;-56
2021/06/15 10:14:29;;;;;;;3.75;1.08;;;;;;;;;;4373398;32;20198;-56
2021/06/15 10:16:56;;;;;;;2.05;1.10;;;;;;;;;;4373325;32;20210;-56
2021/06/15 10:19:23;;;;;;;2.53;1.33;;;;;;;;;;4374031;32;20240;-56
2021/06/15 10:21:49;;;;;;;2.05;1.10;;;;;;;;;;4373482;32;20714;-57
2021/06/15 10:24:18;;;;;;;1.23;1.02;;;;;;;;;;4372425;32;20622;-57
2021/06/15 10:26:44;;;;;;;1.20;0.98;;;;;;;;;;4373653;32;20215;-57
2021/06/15 10:29:13;;;;;;;1.62;1.05;;;;;;;;;;4372945;32;20236;-57
2021/06/15 10:31:41;;;;;;;6.43;1.20;;;;;;;;;;4363346;32;20320;-57
2021/06/15 10:34:07;;;;;;;2.58;1.30;;;;;;;;;;4358563;32;20245;-58
2021/06/15 10:36:39;;;;;;;1.87;1.25;;;;;;;;;;4357757;32;20293;-58
2021/06/15 10:39:08;;;;;;;2.95;1.25;;;;;;;;;;4358416;32;20206;-57
2021/06/15 10:41:34;;;;;;;4.40;1.05;;;;;;;;;;4358144;32;20243;-58
2021/06/15 10:44:00;;;;;;;6.22;0.98;;;;;;;;;;4358367;32;20273;-57
2021/06/15 10:46:38;;;;;;;2.55;0.90;;;;;;;;;;4358494;32;20257;-57
2021/06/15 10:49:23;;;;;;;2.83;1.30;;;;;;;;;;4358351;32;20227;-58
2021/06/15 10:51:54;;;;;;;1.40;1.00;;;;;;;;;;4358025;33;20241;-58
2021/06/15 10:54:35;;;;;;;2.10;1.37;;;;;;;;;;4358524;33;20281;-58
2021/06/15 10:57:14;;;;;;;2.90;1.37;;;;;;;;;;4359543;33;20269;-56
2021/06/15 10:59:55;;;;;;;1.83;1.60;;;;;;;;;;4358272;33;20277;-58
2021/06/15 11:02:21;;;;;;;1.70;1.17;;;;;;;;;;4358771;33;20218;-57
2021/06/15 11:04:46;;;;;;;6.30;1.30;;;;;;;;;;4358219;33;20372;-57
2021/06/15 11:07:25;;;;;;;5.43;1.20;;;;;;;;;;4358365;33;20283;-57
2021/06/15 11:09:51;;;;;;;3.83;1.20;;;;;;;;;;4358741;32;20509;-57
2021/06/15 11:12:19;;;;;;;2.15;0.90;;;;;;;;;;4358052;33;20226;-56
2021/06/15 11:15:07;;;;;;;3.50;0.88;;;;;;;;;;4358634;33;20276;-57
2021/06/15 11:17:45;;;;;;;3.83;1.42;;;;;;;;;;4358547;33;20248;-57
2021/06/15 11:20:11;;;;;;;1.83;1.05;;;;;;;;;;4358750;33;20268;-56
2021/06/15 11:22:36;;;;;;;4.10;1.10;;;;;;;;;;4357594;33;20246;-56
2021/06/15 11:25:03;;;;;;;3.20;1.10;;;;;;;;;;4359236;33;20661;-56
2021/06/15 11:27:28;;;;;;;9.68;1.45;;;;;;;;;;4359359;33;20234;-56
2021/06/15 11:29:59;;;;;;;2.90;0.90;;;;;;;;;;4359771;32;20272;-56
2021/06/15 11:32:25;;;;;;;4.25;1.83;;;;;;;;;;4361320;32;20288;-57
2021/06/15 11:34:58;;;;;;;1.65;0.95;;;;;;;;;;4358075;33;20207;-57
2021/06/15 11:37:36;;;;;;;1.10;1.00;;;;;;;;;;4358486;33;20241;-57
2021/06/15 11:40:19;;;;;;;4.30;1.10;;;;;;;;;;4358332;33;20252;-58
2021/06/15 11:42:49;;;;;;;2.22;1.08;;;;;;;;;;4358302;33;20223;-57
2021/06/15 11:45:17;;;;;;;4.78;1.10;;;;;;;;;;4358260;33;20237;-58
2021/06/15 11:47:52;;;;;;;4.55;1.30;;;;;;;;;;4358372;33;20674;-58
2021/06/15 11:50:27;;;;;;;1.75;1.08;;;;;;;;;;4358214;33;20643;-57
2021/06/15 11:53:03;;;;;;;4.90;0.90;;;;;;;;;;4358622;32;20230;-57
2021/06/15 11:56:01;;;;;;;2.78;1.62;;;;;;;;;;4360745;32;20198;-57
2021/06/15 11:58:31;;;;;;;6.80;1.80;;;;;;;;;;4349274;32;20294;-58
2021/06/15 12:01:03;;;;;;;3.15;1.10;;;;;;;;;;4359011;32;20545;-57
2021/06/15 12:03:42;;;;;;;2.85;1.10;;;;;;;;;;4360895;32;20577;-57
2021/06/15 12:06:10;;;;;;;3.75;1.65;;;;;;;;;;4360829;32;20326;-57
2021/06/15 12:08:44;;;;;;;1.17;0.98;;;;;;;;;;4360557;32;20262;-57
2021/06/15 12:11:14;;;;;;;4.97;1.23;;;;;;;;;;4360758;32;20206;-57
2021/06/15 12:13:40;;;;;;;5.12;1.20;;;;;;;;;;4360247;32;20261;-57
2021/06/15 12:16:10;;;;;;;1.92;1.23;;;;;;;;;;4360028;32;20222;-57
2021/06/15 12:18:41;;;;;;;1.27;0.90;;;;;;;;;;4360388;32;20191;-56
2021/06/15 12:21:27;;;;;;;2.92;1.00;;;;;;;;;;4360448;32;20354;-57
2021/06/15 12:23:54;;;;;;;2.92;1.45;;;;;;;;;;4360447;32;20307;-57
2021/06/15 12:26:32;;;;;;;1.80;1.17;;;;;;;;;;4359998;32;20291;-57
2021/06/15 12:29:02;;;;;;;2.28;1.05;;;;;;;;;;4360263;32;20224;-57
2021/06/15 12:31:30;;;;;;;6.57;1.15;;;;;;;;;;4364336;32;20305;-58
2021/06/15 12:34:07;;;;;;;2.53;0.95;;;;;;;;;;4359850;32;20619;-58
2021/06/15 12:36:38;;;;;;;3.10;0.95;;;;;;;;;;4359974;32;20301;-58
2021/06/15 12:39:17;;;;;;;1.55;0.80;;;;;;;;;;4360307;32;20203;-57
2021/06/15 12:41:48;;;;;;;1.70;1.00;;;;;;;;;;4359537;32;20423;-59
2021/06/15 12:44:14;;;;;;;6.55;1.05;;;;;;;;;;4358231;32;20234;-57
2021/06/15 12:46:41;;;;;;;1.98;1.12;;;;;;;;;;4359688;32;20306;-57
2021/06/15 12:49:27;;;;;;;1.25;0.90;;;;;;;;;;4359281;32;20206;-57
2021/06/15 12:51:55;;;;;;;2.83;0.90;;;;;;;;;;4359652;32;20733;-57
2021/06/15 12:54:27;;;;;;;2.50;1.83;;;;;;;;;;4359892;32;20559;-58
2021/06/15 12:56:56;;;;;;;3.00;0.93;;;;;;;;;;4360012;32;20309;-57
2021/06/15 12:59:21;;;;;;;1.67;1.00;;;;;;;;;;4359478;32;20202;-57
2021/06/15 13:01:47;;;;;;;1.17;0.77;;;;;;;;;;4359570;32;20268;-57
2021/06/15 13:04:30;;;;;;;2.78;1.10;;;;;;;;;;4370517;32;20309;-57
2021/06/15 13:07:00;;;;;;;2.15;1.10;;;;;;;;;;4359737;32;20245;-56
2021/06/15 13:09:27;;;;;;;1.35;0.93;;;;;;;;;;4358252;32;20309;-57
2021/06/15 13:12:05;;;;;;;1.50;0.73;;;;;;;;;;4359575;32;20458;-57
2021/06/15 13:14:38;;;;;;;2.35;0.80;;;;;;;;;;4358364;32;20214;-57
2021/06/15 13:17:06;;;;;;;0.93;0.68;;;;;;;;;;4359219;32;20739;-57
2021/06/15 13:19:42;;;;;;;2.42;0.85;;;;;;;;;;4359020;32;20337;-57
2021/06/15 13:22:12;;;;;;;1.95;1.20;;;;;;;;;;4359326;32;20206;-57
2021/06/15 13:24:42;;;;;;;2.00;0.95;;;;;;;;;;4359311;32;20190;-57
2021/06/15 13:27:35;;;;;;;3.08;1.25;;;;;;;;;;4359745;32;20316;-57
2021/06/15 13:30:11;;;;;;;5.85;1.10;;;;;;;;;;4360942;32;20206;-57
2021/06/15 13:32:39;;;;;;;5.70;1.02;;;;;;;;;;4360446;32;20226;-57
2021/06/15 13:35:11;;;;;;;4.32;1.05;;;;;;;;;;4359017;32;20424;-58
2021/06/15 13:37:52;;;;;;;2.10;1.23;;;;;;;;;;4359366;32;20635;-57
2021/06/15 13:40:42;;;;;;;1.73;1.02;;;;;;;;;;4359526;32;20217;-56
2021/06/15 13:43:13;;;;;;;2.87;1.50;;;;;;;;;;4359536;32;20695;-57
2021/06/15 13:45:44;;;;;;;6.10;0.90;;;;;;;;;;4359287;32;20272;-57
2021/06/15 13:48:11;;;;;;;3.15;1.00;;;;;;;;;;4359235;32;20199;-57
2021/06/15 13:50:37;;;;;;;1.52;1.02;;;;;;;;;;4358771;32;20312;-57
2021/06/15 13:53:04;;;;;;;5.22;1.40;;;;;;;;;;4358995;32;20332;-57
2021/06/15 13:55:31;;;;;;;4.50;1.10;;;;;;;;;;4358560;32;20274;-57
2021/06/15 13:57:57;;;;;;;13.60;1.20;;;;;;;;;;4359132;32;20263;-57
2021/06/15 14:00:23;;;;;;;4.85;0.80;;;;;;;;;;4359265;32;20305;-58
2021/06/15 14:02:49;;;;;;;4.32;1.73;;;;;;;;;;4359520;32;20252;-57
2021/06/15 14:05:20;;;;;;;2.28;1.10;;;;;;;;;;4370132;32;20529;-57
2021/06/15 14:07:47;;;;;;;5.03;1.00;;;;;;;;;;4358982;32;20794;-57
2021/06/15 14:10:13;;;;;;;6.72;1.10;;;;;;;;;;4359174;32;20269;-58
2021/06/15 14:12:41;;;;;;;11.75;1.33;;;;;;;;;;4370431;32;20226;-58
2021/06/15 14:15:07;;;;;;;3.05;1.42;;;;;;;;;;4358692;32;20233;-58
2021/06/15 14:17:33;;;;;;;1.50;0.80;;;;;;;;;;4358838;32;20681;-58
2021/06/15 14:20:04;;;;;;;1.90;1.10;;;;;;;;;;4358657;32;20190;-58
2021/06/15 14:22:30;;;;;;;5.05;1.10;;;;;;;;;;4359036;32;20373;-57
2021/06/15 14:24:56;;;;;;;2.15;1.35;;;;;;;;;;4357927;32;20236;-57
2021/06/15 14:27:21;;;;;;;2.17;1.15;;;;;;;;;;4358838;32;20282;-58
2021/06/15 14:29:48;;;;;;;2.70;1.33;;;;;;;;;;4359318;32;20509;-57
2021/06/15 14:32:14;;;;;;;4.65;1.33;;;;;;;;;;4362452;32;20676;-57
2021/06/15 14:34:40;;;;;;;2.47;1.10;;;;;;;;;;4358688;32;20331;-58
2021/06/15 14:37:06;;;;;;;1.48;1.00;;;;;;;;;;4358988;32;20230;-57
2021/06/15 14:39:32;;;;;;;1.58;1.00;;;;;;;;;;4358698;32;20292;-57
2021/06/15 14:41:58;;;;;;;4.07;1.02;;;;;;;;;;4358534;32;20638;-57
2021/06/15 14:44:23;;;;;;;1.35;0.88;;;;;;;;;;4358259;32;20207;-57
2021/06/15 14:46:49;;;;;;;1.87;0.93;;;;;;;;;;4358775;32;20260;-57
2021/06/15 14:49:14;;;;;;;3.97;1.25;;;;;;;;;;4358827;32;20198;-57
2021/06/15 14:51:40;;;;;;;3.45;1.12;;;;;;;;;;4358716;32;20291;-56
2021/06/15 14:54:05;;;;;;;3.12;2.05;;;;;;;;;;4358958;33;20225;-57
2021/06/15 14:56:35;;;;;;;9.77;1.35;;;;;;;;;;4358855;33;20222;-56